Time;durP1;ratioP1;P1;durP2;ratioP2;P2;SDS_P1;SDS_P2;PMS_P1;PMS_P2;Temp;Humidity;BMP_temperature;BMP_pressure;BME280_temperature;BME280_humidity;BME280_pressure;Samples;Min_cycle;Max_cycle;Signal;HPM_P1;HPM_P2
2022/11/15 09:02:47;;;;;;;6.45;2.13;;;;;;;22.99;46.18;99547.13;4989610;27;3831224;-48
2022/11/15 09:05:16;;;;;;;6.50;2.15;;;;;;;23.36;45.25;99542.56;5109964;28;20070;-49
2022/11/15 09:07:44;;;;;;;5.72;1.70;;;;;;;23.60;44.82;99547.63;5110091;28;20477;-48
2022/11/15 09:10:13;;;;;;;4.70;1.40;;;;;;;23.77;44.12;99543.13;5110217;28;20482;-55
2022/11/15 09:12:41;;;;;;;7.30;2.53;;;;;;;23.91;44.07;99548.22;5109758;28;20069;-47
2022/11/15 09:15:10;;;;;;;12.93;2.28;;;;;;;23.94;43.46;99537.72;5110034;28;20024;-49
2022/11/15 09:17:39;;;;;;;9.30;2.28;;;;;;;24.04;43.35;99554.25;5091652;28;20024;-54
2022/11/15 09:20:07;;;;;;;6.85;2.08;;;;;;;24.06;43.62;99546.41;5091501;28;20095;-47
2022/11/15 09:22:38;;;;;;;38.38;5.32;;;;;;;24.14;43.47;99547.19;5110048;28;20527;-47
2022/11/15 09:25:07;;;;;;;24.00;3.75;;;;;;;24.19;43.44;99552.38;5109286;28;20023;-48
2022/11/15 09:27:36;;;;;;;29.15;5.35;;;;;;;24.20;43.52;99555.00;5109651;28;20386;-48
2022/11/15 09:30:04;;;;;;;53.92;7.65;;;;;;;24.19;43.06;99548.00;5109437;28;20024;-47
2022/11/15 09:32:32;;;;;;;38.70;6.25;;;;;;;24.31;43.09;99564.47;5109634;28;20020;-59
2022/11/15 09:35:00;;;;;;;22.40;5.00;;;;;;;24.31;43.13;99559.22;5109421;28;20020;-49
2022/11/15 09:37:29;;;;;;;26.20;5.88;;;;;;;24.32;43.01;99556.63;5109374;28;20035;-50
2022/11/15 09:39:58;;;;;;;19.15;4.65;;;;;;;24.31;43.13;99556.63;5109411;28;20023;-49
2022/11/15 09:42:41;;;;;;;25.38;5.03;;;;;;;24.28;42.92;99555.75;5109638;28;20085;-48
2022/11/15 09:45:31;;;;;;;28.77;4.82;;;;;;;24.35;42.91;99556.56;5091366;28;20031;-48
2022/11/15 09:48:10;;;;;;;21.92;4.22;;;;;;;24.42;42.77;99555.63;5100217;28;20032;-50
2022/11/15 09:50:46;;;;;;;19.58;4.05;;;;;;;24.46;42.77;99560.84;5109640;28;20062;-50
2022/11/15 09:53:21;;;;;;;23.52;4.47;;;;;;;24.47;42.97;99555.56;5090861;28;20106;-48
2022/11/15 09:56:06;;;;;;;25.60;3.92;;;;;;;24.30;42.86;99561.00;5109330;28;20020;-47
2022/11/15 09:58:41;;;;;;;15.50;3.65;;;;;;;24.34;42.83;99556.59;5091230;28;20031;-47
2022/11/15 10:01:18;;;;;;;18.42;4.03;;;;;;;24.40;43.01;99559.16;5108884;28;20082;-46
2022/11/15 10:03:46;;;;;;;14.98;4.20;;;;;;;24.46;42.75;99556.44;5077323;28;20067;-47
2022/11/15 10:06:25;;;;;;;21.20;3.55;;;;;;;24.54;42.73;99545.88;5094929;28;20031;-48
2022/11/15 10:09:23;;;;;;;13.07;3.50;;;;;;;24.49;42.57;99545.94;5077316;28;20029;-51
2022/11/15 10:11:52;;;;;;;16.30;3.50;;;;;;;24.48;42.65;99544.19;5090312;28;20506;-49
2022/11/15 10:14:23;;;;;;;13.63;3.05;;;;;;;24.51;42.49;99538.03;5095300;28;20134;-47
2022/11/15 10:17:00;;;;;;;14.60;3.88;;;;;;;24.45;42.30;99525.00;5077376;28;20012;-48
2022/11/15 10:19:36;;;;;;;13.80;3.28;;;;;;;24.49;42.53;99535.44;5095090;28;20478;-47
2022/11/15 10:22:06;;;;;;;15.02;3.92;;;;;;;24.47;42.61;99534.59;5095264;28;20103;-51
2022/11/15 10:24:41;;;;;;;21.25;3.75;;;;;;;24.46;42.77;99539.88;5095003;28;20482;-50
2022/11/15 10:27:16;;;;;;;20.88;4.22;;;;;;;24.47;42.80;99534.59;5077139;28;20020;-47
2022/11/15 10:29:47;;;;;;;16.17;3.92;;;;;;;24.55;42.73;99531.88;5094839;28;20024;-48
2022/11/15 10:32:18;;;;;;;20.83;4.93;;;;;;;24.52;42.70;99531.91;5094487;28;20136;-47
2022/11/15 10:34:47;;;;;;;15.60;2.85;;;;;;;24.55;42.71;99537.13;5094876;28;20024;-54
2022/11/15 10:37:15;;;;;;;15.40;4.13;;;;;;;24.43;43.04;99540.75;5083220;28;20032;-46
2022/11/15 10:39:43;;;;;;;12.98;3.67;;;;;;;24.31;43.28;99541.78;5088345;28;20028;-47
2022/11/15 10:42:30;;;;;;;19.73;3.90;;;;;;;24.22;43.34;99534.00;5089535;28;20042;-52
2022/11/15 10:44:58;;;;;;;17.13;3.85;;;;;;;24.24;43.17;99540.09;5093429;28;20024;-47
2022/11/15 10:47:28;;;;;;;22.42;3.03;;;;;;;24.22;43.39;99528.75;5071056;28;20026;-48
2022/11/15 10:50:03;;;;;;;13.80;3.28;;;;;;;24.24;43.55;99540.94;5093225;28;20023;-51
2022/11/15 10:52:32;;;;;;;12.57;3.35;;;;;;;24.28;43.01;99528.69;5093544;28;20024;-48
2022/11/15 10:55:06;;;;;;;13.45;3.90;;;;;;;24.25;43.29;99531.34;5093298;28;20028;-48
2022/11/15 10:57:37;;;;;;;14.40;3.38;;;;;;;24.21;43.16;99527.91;5088721;28;20093;-48
2022/11/15 11:00:14;;;;;;;15.05;3.13;;;;;;;24.26;43.17;99530.47;5093456;28;20540;-48
2022/11/15 11:03:07;;;;;;;12.18;3.33;;;;;;;24.30;42.88;99532.19;5072400;28;20051;-53
2022/11/15 11:05:38;;;;;;;12.35;3.22;;;;;;;24.32;43.17;99535.66;5075826;28;20067;-51
2022/11/15 11:08:07;;;;;;;7.43;2.20;;;;;;;24.37;42.99;99531.19;5071104;28;20462;-51
2022/11/15 11:10:35;;;;;;;8.85;2.70;;;;;;;24.39;42.78;99516.34;5091461;28;20486;-50
2022/11/15 11:13:23;;;;;;;14.15;3.00;;;;;;;24.35;42.66;99519.88;5091698;28;20058;-50
2022/11/15 11:16:15;;;;;;;10.07;2.70;;;;;;;24.33;42.98;99500.66;5084445;28;20028;-52
2022/11/15 11:19:05;;;;;;;9.63;2.97;;;;;;;24.38;42.68;99506.72;5084283;28;20449;-48
2022/11/15 11:21:56;;;;;;;12.27;3.13;;;;;;;24.42;42.47;99505.81;5056014;28;20056;-50
2022/11/15 11:24:34;;;;;;;9.57;2.95;;;;;;;24.42;42.46;99499.69;5068064;28;20437;-53
2022/11/15 11:27:33;;;;;;;15.30;2.58;;;;;;;24.41;42.37;99497.94;5090663;28;20475;-52
2022/11/15 11:30:16;;;;;;;10.90;2.85;;;;;;;24.48;42.54;99494.38;5071688;28;20024;-49
2022/11/15 11:33:22;;;;;;;8.00;2.50;;;;;;;24.57;42.18;99494.25;5091742;28;20434;-53
2022/11/15 11:35:56;;;;;;;10.73;2.97;;;;;;;24.65;42.15;99490.69;5081864;28;20546;-51
2022/11/15 11:38:33;;;;;;;12.13;2.97;;;;;;;24.70;42.15;99496.78;5090732;28;20042;-50
2022/11/15 11:41:39;;;;;;;11.70;2.40;;;;;;;24.68;42.31;99501.13;5091358;28;20085;-50
2022/11/15 11:44:25;;;;;;;11.95;2.92;;;;;;;24.71;42.27;99493.25;5080298;28;20182;-52
2022/11/15 11:47:18;;;;;;;9.48;2.83;;;;;;;24.75;42.12;99496.69;5063343;28;20032;-48
2022/11/15 11:49:48;;;;;;;6.63;2.38;;;;;;;24.84;41.87;99501.81;5089823;28;20028;-48
2022/11/15 11:52:19;;;;;;;7.95;2.30;;;;;;;24.81;42.15;99494.84;5090293;28;20020;-53
2022/11/15 11:54:53;;;;;;;6.05;2.17;;;;;;;24.76;42.26;99503.69;5089990;28;20032;-51
2022/11/15 11:57:53;;;;;;;8.45;2.03;;;;;;;24.76;42.31;99503.69;5089058;28;20111;-51
2022/11/15 12:00:23;;;;;;;7.40;1.80;;;;;;;24.84;41.86;99504.44;5090654;28;20065;-49
2022/11/15 12:03:13;;;;;;;5.82;1.77;;;;;;;24.85;41.84;99500.94;5090158;28;20063;-50
2022/11/15 12:06:01;;;;;;;9.02;2.20;;;;;;;24.91;41.61;99495.59;5070533;28;20492;-56
2022/11/15 12:08:44;;;;;;;6.07;1.65;;;;;;;24.82;41.61;99499.22;5088034;28;20035;-52
2022/11/15 12:11:18;;;;;;;10.18;1.80;;;;;;;24.85;41.65;99483.44;5071803;28;20032;-49
2022/11/15 12:13:46;;;;;;;7.78;2.15;;;;;;;24.85;41.70;99488.69;5090953;28;20020;-50
2022/11/15 12:16:20;;;;;;;7.32;2.40;;;;;;;24.87;41.91;99483.41;5089317;28;20459;-51
2022/11/15 12:18:51;;;;;;;6.43;1.90;;;;;;;24.84;41.77;99465.09;5072523;28;20478;-56
2022/11/15 12:21:58;;;;;;;5.07;1.60;;;;;;;24.81;42.10;99465.16;5072816;28;20028;-48
2022/11/15 12:24:40;;;;;;;7.05;1.77;;;;;;;24.82;41.76;99469.53;5083569;28;20044;-47
2022/11/15 12:27:16;;;;;;;6.90;2.25;;;;;;;24.85;41.75;99466.81;5086836;28;20371;-50
2022/11/15 12:29:49;;;;;;;6.00;2.03;;;;;;;24.95;41.41;99484.19;5086433;28;20030;-48
2022/11/15 12:32:32;;;;;;;6.88;2.03;;;;;;;24.88;41.38;99482.53;5090967;28;20071;-50
2022/11/15 12:35:02;;;;;;;7.38;1.83;;;;;;;24.95;41.25;99473.69;5091847;28;20016;-48
2022/11/15 12:37:40;;;;;;;6.47;1.48;;;;;;;24.87;41.46;99486.03;5089872;28;20028;-47
2022/11/15 12:40:10;;;;;;;7.88;1.83;;;;;;;24.93;41.12;99508.69;5088938;28;20071;-51
2022/11/15 12:42:43;;;;;;;5.20;1.55;;;;;;;24.88;41.25;99490.41;5091382;28;20028;-50
2022/11/15 12:45:31;;;;;;;7.93;1.83;;;;;;;24.81;41.29;99491.38;5091908;28;20020;-49
2022/11/15 12:48:18;;;;;;;5.53;1.60;;;;;;;24.84;41.51;99496.56;5084007;28;20551;-52
2022/11/15 12:51:05;;;;;;;4.53;1.50;;;;;;;24.88;41.37;99488.66;5073234;28;20032;-51
2022/11/15 12:53:35;;;;;;;4.45;1.58;;;;;;;24.82;41.41;99490.50;5091445;28;20025;-47
2022/11/15 12:56:23;;;;;;;4.47;1.48;;;;;;;24.76;41.73;99508.94;5072113;28;20470;-48
2022/11/15 12:59:10;;;;;;;5.57;1.40;;;;;;;24.78;41.53;99494.03;5091186;28;20429;-51
2022/11/15 13:01:38;;;;;;;9.02;2.33;;;;;;;24.90;41.30;99491.25;5090923;28;20044;-50
2022/11/15 13:04:26;;;;;;;8.25;1.52;;;;;;;24.85;40.95;99488.69;5091520;28;20105;-50
2022/11/15 13:07:01;;;;;;;7.13;1.75;;;;;;;24.85;41.01;99488.69;5089829;28;20040;-49
2022/11/15 13:09:30;;;;;;;8.73;2.63;;;;;;;24.82;41.04;99488.72;5091130;28;20020;-53
2022/11/15 13:12:01;;;;;;;8.25;1.70;;;;;;;24.77;40.82;99487.06;5091538;28;20040;-50
2022/11/15 13:14:49;;;;;;;5.00;1.50;;;;;;;24.79;41.02;99488.75;5092432;28;20474;-50
2022/11/15 13:17:21;;;;;;;4.00;1.17;;;;;;;24.84;40.74;99483.44;5074376;28;20089;-56
2022/11/15 13:19:54;;;;;;;6.95;1.65;;;;;;;24.80;41.26;99494.91;5092355;28;20073;-50
2022/11/15 13:23:05;;;;;;;6.00;1.75;;;;;;;24.88;40.91;99487.78;5091903;28;20028;-50
2022/11/15 13:25:48;;;;;;;5.47;1.67;;;;;;;24.81;40.99;99487.00;5085191;28;20417;-54
2022/11/15 13:28:16;;;;;;;7.65;1.83;;;;;;;24.81;40.91;99486.13;5080888;28;20033;-52
2022/11/15 13:30:48;;;;;;;4.65;1.42;;;;;;;24.73;41.16;99486.25;5092266;28;20073;-55
2022/11/15 13:33:20;;;;;;;9.07;1.58;;;;;;;24.83;40.87;99476.47;5091811;28;20032;-52
2022/11/15 13:35:51;;;;;;;4.90;2.15;;;;;;;24.80;40.72;99477.38;5092050;28;20032;-56
2022/11/15 13:38:31;;;;;;;8.38;2.10;;;;;;;24.83;40.90;99485.22;5094250;28;20028;-51
2022/11/15 13:41:11;;;;;;;3.55;1.50;;;;;;;24.81;40.77;99475.66;5095798;28;20394;-52
2022/11/15 13:43:39;;;;;;;8.95;2.25;;;;;;;24.78;40.77;99475.69;5067528;28;20024;-51
2022/11/15 13:46:27;;;;;;;7.80;1.40;;;;;;;24.76;40.85;99477.47;5075582;28;20050;-47
2022/11/15 13:49:06;;;;;;;4.78;1.42;;;;;;;24.72;40.90;99477.50;5066333;28;20033;-50
2022/11/15 13:51:48;;;;;;;6.90;1.65;;;;;;;24.76;40.84;99486.19;5075487;28;20094;-48
2022/11/15 13:54:21;;;;;;;4.38;1.10;;;;;;;24.88;40.46;99486.03;5075363;28;20028;-55
2022/11/15 13:56:55;;;;;;;6.57;1.40;;;;;;;24.81;40.44;99487.00;5075476;28;20024;-49
2022/11/15 13:59:27;;;;;;;7.33;2.10;;;;;;;24.83;40.50;99493.09;5057870;28;20131;-51
2022/11/15 14:01:56;;;;;;;5.70;1.50;;;;;;;24.76;40.79;99482.72;5075304;28;20069;-50
2022/11/15 14:04:26;;;;;;;5.07;1.52;;;;;;;24.74;40.94;99487.94;5057641;28;20483;-53
2022/11/15 14:06:57;;;;;;;8.10;1.73;;;;;;;24.81;40.39;99486.13;5075118;28;20039;-47
2022/11/15 14:09:36;;;;;;;8.13;1.60;;;;;;;24.72;40.71;99482.75;5074982;28;20032;-48
2022/11/15 14:12:26;;;;;;;6.20;1.67;;;;;;;24.60;40.80;99482.88;5088296;28;20023;-48
2022/11/15 14:14:54;;;;;;;5.13;1.52;;;;;;;24.64;40.55;99500.31;5093517;28;20035;-49
2022/11/15 14:17:35;;;;;;;6.32;1.90;;;;;;;24.53;40.71;99489.06;5093930;28;20060;-50
2022/11/15 14:20:03;;;;;;;8.20;1.80;;;;;;;24.55;40.95;99496.06;5089663;28;20024;-48
2022/11/15 14:22:31;;;;;;;4.45;1.40;;;;;;;24.53;40.72;99496.94;5076051;28;20031;-52
2022/11/15 14:25:13;;;;;;;3.20;1.20;;;;;;;24.64;40.83;99500.31;5093936;28;20051;-47
2022/11/15 14:27:42;;;;;;;4.75;1.25;;;;;;;24.63;40.62;99503.81;5094025;28;20058;-48
2022/11/15 14:30:18;;;;;;;7.72;2.05;;;;;;;24.61;40.48;99500.34;5071151;28;20035;-50
2022/11/15 14:32:47;;;;;;;7.18;1.88;;;;;;;24.52;41.13;99490.84;5090867;28;20028;-52
2022/11/15 14:35:17;;;;;;;5.32;1.55;;;;;;;24.59;40.90;99486.38;5093699;28;20456;-48
2022/11/15 14:37:45;;;;;;;4.60;1.23;;;;;;;24.61;40.67;99475.88;5075363;28;20479;-50
2022/11/15 14:40:15;;;;;;;5.82;1.58;;;;;;;24.61;41.02;99489.88;5089191;28;20051;-52
2022/11/15 14:42:44;;;;;;;5.38;1.52;;;;;;;24.54;41.08;99483.84;5093422;28;20020;-50
2022/11/15 14:45:19;;;;;;;5.97;1.77;;;;;;;24.39;41.18;99484.88;5093807;28;20103;-49
2022/11/15 14:47:48;;;;;;;8.32;1.65;;;;;;;24.64;40.29;99473.22;5093271;28;20095;-47
2022/11/15 14:50:18;;;;;;;4.90;1.45;;;;;;;24.66;40.67;99477.53;5088689;28;20024;-47
2022/11/15 14:52:47;;;;;;;7.53;1.75;;;;;;;24.79;40.18;99483.53;5090051;28;20085;-47
2022/11/15 14:55:23;;;;;;;5.15;1.50;;;;;;;24.76;40.22;99494.03;5093348;28;20024;-52
2022/11/15 14:57:53;;;;;;;4.60;1.40;;;;;;;24.78;39.86;99486.19;5075235;28;20062;-49
2022/11/15 15:00:22;;;;;;;4.70;1.60;;;;;;;24.76;40.19;99485.31;5092711;28;20020;-50
2022/11/15 15:02:53;;;;;;;6.70;1.42;;;;;;;24.71;40.08;99488.88;5075426;28;20398;-51
2022/11/15 15:05:23;;;;;;;7.93;1.90;;;;;;;24.74;40.14;99485.34;5093239;28;20028;-48
2022/11/15 15:07:53;;;;;;;7.50;1.42;;;;;;;24.72;40.27;99495.00;5093157;28;20024;-53
2022/11/15 15:10:21;;;;;;;9.57;2.00;;;;;;;24.77;40.02;99489.69;5092140;28;20020;-51
2022/11/15 15:12:50;;;;;;;5.53;1.90;;;;;;;24.75;40.43;99475.72;5093081;28;20017;-50
2022/11/15 15:15:25;;;;;;;5.70;1.58;;;;;;;24.74;39.83;99485.34;5093330;28;20020;-53
2022/11/15 15:17:54;;;;;;;5.32;1.63;;;;;;;24.68;40.07;99493.28;5074415;28;20376;-52
2022/11/15 15:20:22;;;;;;;4.40;1.20;;;;;;;24.66;40.01;99493.28;5092228;28;20037;-50
2022/11/15 15:22:51;;;;;;;5.65;2.08;;;;;;;24.67;40.24;99492.38;5093075;28;20028;-55
2022/11/15 15:25:38;;;;;;;4.47;1.65;;;;;;;24.66;40.25;99493.28;5092855;28;20494;-52
2022/11/15 15:28:06;;;;;;;1.98;0.88;;;;;;;24.74;40.12;99501.06;5092240;28;20479;-48
2022/11/15 15:30:35;;;;;;;5.65;1.40;;;;;;;24.70;40.07;99502.00;5091497;28;20024;-53
2022/11/15 15:33:03;;;;;;;5.95;1.38;;;;;;;24.76;40.24;99501.06;5092862;28;20020;-50
2022/11/15 15:35:34;;;;;;;8.00;1.67;;;;;;;24.79;39.54;99501.03;5092683;28;20028;-52
2022/11/15 15:38:03;;;;;;;4.50;1.27;;;;;;;24.75;39.52;99502.81;5092358;28;20028;-52
2022/11/15 15:40:32;;;;;;;5.28;1.23;;;;;;;24.79;39.20;99499.25;5091198;28;20024;-51
2022/11/15 15:43:01;;;;;;;5.93;1.27;;;;;;;24.72;39.70;99501.09;5074703;28;20016;-50
2022/11/15 15:45:31;;;;;;;5.38;1.60;;;;;;;24.70;39.86;99505.50;5092743;28;20027;-53
2022/11/15 15:47:59;;;;;;;4.35;1.30;;;;;;;24.64;39.83;99502.94;5074544;28;20446;-50
2022/11/15 15:50:30;;;;;;;4.00;1.20;;;;;;;24.68;39.91;99506.38;5091092;28;20031;-52
2022/11/15 15:53:01;;;;;;;6.38;1.55;;;;;;;24.62;39.87;99507.34;5074285;28;20421;-49
2022/11/15 15:55:30;;;;;;;3.72;0.98;;;;;;;24.61;40.06;99502.97;5092248;28;20024;-47
2022/11/15 15:57:58;;;;;;;7.63;1.88;;;;;;;24.62;40.08;99507.34;5092191;28;20027;-49
2022/11/15 16:00:26;;;;;;;4.50;1.55;;;;;;;24.65;40.03;99504.69;5090208;28;20028;-51
2022/11/15 16:02:54;;;;;;;4.25;1.50;;;;;;;24.60;40.16;99509.09;5092428;28;20024;-49
2022/11/15 16:05:23;;;;;;;5.80;1.38;;;;;;;24.54;40.17;99502.19;5092126;28;20024;-54
2022/11/15 16:07:52;;;;;;;6.45;1.55;;;;;;;24.53;40.33;99500.44;5092060;28;20109;-49
2022/11/15 16:10:25;;;;;;;5.97;2.08;;;;;;;24.61;40.11;99507.34;5088706;28;20044;-49
2022/11/15 16:12:53;;;;;;;4.80;1.25;;;;;;;24.61;40.09;99500.34;5091782;28;20111;-54
2022/11/15 16:15:23;;;;;;;3.55;1.10;;;;;;;24.64;40.12;99500.31;5091771;28;20099;-52
2022/11/15 16:17:53;;;;;;;4.90;1.75;;;;;;;24.60;40.15;99501.22;5091995;28;20078;-52
2022/11/15 16:20:30;;;;;;;4.75;1.65;;;;;;;24.58;39.99;99505.63;5089510;28;20378;-56
2022/11/15 16:22:59;;;;;;;7.00;1.90;;;;;;;24.64;39.56;99499.44;5088100;28;20058;-48
2022/11/15 16:25:27;;;;;;;3.78;1.30;;;;;;;24.57;40.10;99504.75;5091878;28;20024;-48
2022/11/15 16:27:56;;;;;;;5.75;1.92;;;;;;;24.63;40.19;99502.94;5091418;28;20028;-48
2022/11/15 16:30:25;;;;;;;4.10;1.40;;;;;;;24.72;39.63;99500.25;5089392;28;20077;-53
2022/11/15 16:32:53;;;;;;;5.40;1.40;;;;;;;24.62;40.11;99504.72;5091383;28;20115;-50
2022/11/15 16:35:22;;;;;;;4.53;1.30;;;;;;;24.57;40.36;99501.25;5091378;28;20482;-50
2022/11/15 16:37:51;;;;;;;5.47;1.50;;;;;;;24.67;40.07;99505.50;5091878;28;20030;-50
2022/11/15 16:40:29;;;;;;;3.45;1.02;;;;;;;24.60;39.72;99496.00;5088842;28;20356;-52
2022/11/15 16:43:01;;;;;;;3.75;1.15;;;;;;;24.65;39.73;99502.06;5091673;28;20561;-53
2022/11/15 16:45:30;;;;;;;6.38;2.22;;;;;;;24.68;39.86;99509.84;5092414;28;20394;-49
2022/11/15 16:47:59;;;;;;;6.13;1.40;;;;;;;24.65;39.86;99501.16;5092461;28;20071;-52
2022/11/15 16:50:30;;;;;;;5.55;1.88;;;;;;;24.60;40.03;99506.47;5074097;28;20494;-47
2022/11/15 16:52:59;;;;;;;5.55;1.35;;;;;;;24.59;39.97;99496.88;5092320;28;20127;-48
2022/11/15 16:55:29;;;;;;;4.53;1.58;;;;;;;24.66;39.72;99498.50;5092464;28;20398;-48
2022/11/15 16:57:58;;;;;;;5.60;1.65;;;;;;;24.73;39.30;99499.34;5084304;28;20034;-50
2022/11/15 17:00:25;;;;;;;4.53;1.30;;;;;;;24.65;39.76;99499.44;5086202;28;20028;-55
2022/11/15 17:02:54;;;;;;;6.78;1.95;;;;;;;24.65;39.58;99503.78;5072564;28;20036;-55
2022/11/15 17:05:26;;;;;;;7.22;1.58;;;;;;;24.54;40.06;99510.03;5088637;28;20086;-57
2022/11/15 17:07:54;;;;;;;5.25;1.85;;;;;;;24.56;39.81;99497.78;5090190;28;20024;-54
2022/11/15 17:10:24;;;;;;;3.72;1.33;;;;;;;24.66;39.59;99501.13;5090650;28;20028;-53
2022/11/15 17:12:52;;;;;;;7.80;2.17;;;;;;;24.64;39.42;99502.06;5093414;28;20107;-51
2022/11/15 17:15:21;;;;;;;6.03;1.42;;;;;;;24.57;39.71;99502.13;5095772;28;20441;-50
2022/11/15 17:17:53;;;;;;;5.68;1.50;;;;;;;24.62;39.47;99502.09;5096253;28;20025;-52
2022/11/15 17:20:24;;;;;;;7.55;2.13;;;;;;;24.61;39.72;99500.34;5096011;28;20056;-51
2022/11/15 17:22:53;;;;;;;6.30;1.70;;;;;;;24.58;39.57;99503.00;5095855;28;20390;-52
2022/11/15 17:25:21;;;;;;;4.22;1.48;;;;;;;24.58;39.42;99495.13;5096205;28;20039;-58
2022/11/15 17:27:49;;;;;;;10.75;2.38;;;;;;;24.57;39.74;99494.25;5096092;28;20428;-54
2022/11/15 17:30:19;;;;;;;8.00;2.10;;;;;;;24.55;39.48;99496.06;5095874;28;20028;-51
2022/11/15 17:32:48;;;;;;;6.57;1.88;;;;;;;24.55;39.29;99487.31;5096117;28;20051;-57
2022/11/15 17:35:17;;;;;;;3.53;1.13;;;;;;;24.58;39.53;99490.75;5095879;28;20036;-53
2022/11/15 17:37:44;;;;;;;7.10;1.90;;;;;;;24.51;39.41;99482.97;5086182;28;20534;-55
2022/11/15 17:40:11;;;;;;;9.38;1.98;;;;;;;24.39;39.76;99474.41;5094573;28;20380;-55
2022/11/15 17:42:41;;;;;;;6.10;1.70;;;;;;;24.28;40.23;99477.13;5094418;28;20111;-48
2022/11/15 17:45:10;;;;;;;9.32;1.80;;;;;;;24.27;40.30;99482.41;5073366;28;20032;-50
2022/11/15 17:47:37;;;;;;;4.70;1.50;;;;;;;24.28;40.18;99482.38;5071929;28;20040;-54
2022/11/15 17:50:05;;;;;;;6.68;2.05;;;;;;;24.44;39.41;99487.44;5094538;28;20050;-52
2022/11/15 17:52:32;;;;;;;11.77;2.00;;;;;;;24.43;39.57;99483.97;5094132;28;20056;-50
2022/11/15 17:54:59;;;;;;;5.53;1.55;;;;;;;24.35;39.69;99472.69;5057411;28;20112;-46
2022/11/15 17:57:26;;;;;;;5.70;1.73;;;;;;;24.40;39.55;99491.84;5091044;28;20031;-52
2022/11/15 17:59:53;;;;;;;6.03;1.90;;;;;;;24.27;40.03;99500.75;5094521;28;20428;-47
2022/11/15 18:02:21;;;;;;;8.35;2.13;;;;;;;24.22;40.03;99534.88;5076508;28;20067;-49
2022/11/15 18:04:50;;;;;;;11.55;2.53;;;;;;;24.26;39.59;99551.44;5090227;28;20027;-49
2022/11/15 18:07:18;;;;;;;8.73;1.67;;;;;;;24.43;39.65;99531.16;5073124;28;20032;-48
2022/11/15 18:09:47;;;;;;;8.27;2.05;;;;;;;24.51;39.36;99559.00;5094529;28;20032;-48
2022/11/15 18:12:15;;;;;;;6.30;1.40;;;;;;;24.46;39.27;99537.25;5076356;28;20410;-51
2022/11/15 18:14:44;;;;;;;10.35;1.98;;;;;;;24.40;39.47;99536.41;5076092;28;20031;-46
2022/11/15 18:17:12;;;;;;;4.75;1.88;;;;;;;24.39;39.59;99537.31;5076069;28;20502;-47
2022/11/15 18:19:41;;;;;;;6.22;1.33;;;;;;;24.49;39.62;99550.31;5094072;28;20499;-47
2022/11/15 18:22:09;;;;;;;4.72;1.75;;;;;;;24.51;39.57;99557.28;5076092;28;20035;-49
2022/11/15 18:24:37;;;;;;;4.85;1.40;;;;;;;24.58;39.37;99537.94;5092842;28;20097;-49
2022/11/15 18:27:06;;;;;;;7.90;1.75;;;;;;;24.47;39.56;99545.06;5089448;28;20418;-52
2022/11/15 18:29:36;;;;;;;7.57;2.00;;;;;;;24.49;39.82;99545.94;5093637;28;20103;-49
2022/11/15 18:32:11;;;;;;;8.63;1.80;;;;;;;24.42;39.61;99541.63;5077251;28;20032;-47
2022/11/15 18:34:39;;;;;;;4.75;1.55;;;;;;;24.52;39.68;99537.16;5077559;28;20035;-48
2022/11/15 18:37:08;;;;;;;6.35;1.80;;;;;;;24.56;39.49;99536.22;5080339;28;20081;-48
2022/11/15 18:39:37;;;;;;;7.40;1.70;;;;;;;24.47;39.66;99550.31;5056822;28;20486;-48
2022/11/15 18:42:05;;;;;;;8.82;2.47;;;;;;;24.37;39.84;99541.69;5056501;28;20107;-49
2022/11/15 18:44:34;;;;;;;6.78;1.83;;;;;;;24.37;40.23;99538.22;5073761;28;20020;-46
2022/11/15 18:47:02;;;;;;;10.18;2.58;;;;;;;24.36;39.99;99537.31;5074006;28;20483;-48
2022/11/15 18:49:31;;;;;;;13.45;3.58;;;;;;;24.42;39.76;99542.50;5074093;28;20025;-46
2022/11/15 18:51:59;;;;;;;14.68;3.08;;;;;;;24.49;39.65;99526.72;5074092;28;20055;-47
2022/11/15 18:54:28;;;;;;;9.00;2.47;;;;;;;24.42;40.18;99513.69;5074310;28;20031;-47
2022/11/15 18:56:57;;;;;;;13.40;3.35;;;;;;;24.42;40.21;99511.06;5085067;28;20024;-50
2022/11/15 18:59:26;;;;;;;11.80;3.40;;;;;;;24.42;40.17;99508.44;5094375;28;20093;-47
2022/11/15 19:01:55;;;;;;;11.27;3.67;;;;;;;24.36;40.36;99510.25;5094221;28;20051;-47
2022/11/15 19:04:24;;;;;;;11.27;3.22;;;;;;;24.57;40.13;99519.63;5094569;28;20020;-48
2022/11/15 19:06:52;;;;;;;12.40;3.10;;;;;;;24.62;39.76;99517.81;5081668;28;20019;-48
2022/11/15 19:09:20;;;;;;;6.68;2.38;;;;;;;24.68;40.02;99516.88;5074186;28;20029;-49
2022/11/15 19:11:50;;;;;;;10.15;2.50;;;;;;;24.65;39.83;99517.78;5073886;28;20031;-48
2022/11/15 19:14:22;;;;;;;8.70;2.20;;;;;;;24.65;39.94;99530.91;5073554;28;20483;-48
2022/11/15 19:16:51;;;;;;;10.35;2.70;;;;;;;24.69;39.66;99529.94;5073004;28;20033;-50
2022/11/15 19:19:22;;;;;;;8.70;2.22;;;;;;;24.65;39.40;99523.03;5055685;28;20119;-47
2022/11/15 19:21:50;;;;;;;9.77;2.65;;;;;;;24.68;39.76;99528.22;5073738;28;20074;-48
2022/11/15 19:24:19;;;;;;;8.48;2.20;;;;;;;24.66;39.16;99524.72;5055814;28;20025;-48
2022/11/15 19:26:47;;;;;;;8.25;2.03;;;;;;;24.64;39.66;99523.03;5072413;28;20028;-47
2022/11/15 19:29:17;;;;;;;7.25;2.00;;;;;;;24.65;39.55;99524.75;5073564;28;20100;-47
2022/11/15 19:31:47;;;;;;;7.15;2.00;;;;;;;24.59;39.60;99520.47;5073466;28;20430;-49
2022/11/15 19:34:16;;;;;;;6.53;1.75;;;;;;;24.60;39.43;99519.59;5056204;28;20024;-48
2022/11/15 19:36:45;;;;;;;9.23;2.22;;;;;;;24.53;39.74;99520.53;5072172;28;20103;-51
2022/11/15 19:39:16;;;;;;;6.18;1.80;;;;;;;24.52;39.75;99518.78;5055677;28;20024;-47
2022/11/15 19:41:45;;;;;;;6.82;1.55;;;;;;;24.54;39.70;99514.41;5073289;28;20459;-50
2022/11/15 19:44:17;;;;;;;6.10;1.83;;;;;;;24.52;39.64;99505.69;5055889;28;20025;-48
2022/11/15 19:46:46;;;;;;;5.88;1.75;;;;;;;24.58;39.34;99510.88;5038515;28;20070;-50
2022/11/15 19:49:14;;;;;;;6.18;1.80;;;;;;;24.52;39.23;99514.44;5073105;28;20028;-48
2022/11/15 19:51:46;;;;;;;6.50;1.75;;;;;;;24.51;39.29;99512.69;5073059;28;20166;-47
2022/11/15 19:54:15;;;;;;;7.10;1.70;;;;;;;24.49;39.58;99506.59;5072776;28;20032;-47
2022/11/15 19:56:44;;;;;;;6.45;1.60;;;;;;;24.46;39.41;99508.41;5073171;28;20020;-51
2022/11/15 19:59:13;;;;;;;5.00;1.83;;;;;;;24.45;39.64;99511.91;5072607;28;20035;-50
2022/11/15 20:01:41;;;;;;;5.70;1.67;;;;;;;24.45;39.47;99511.91;5072908;28;20041;-47
2022/11/15 20:04:10;;;;;;;5.28;1.33;;;;;;;24.48;39.52;99511.88;5073109;28;20035;-47
2022/11/15 20:06:42;;;;;;;5.70;1.35;;;;;;;24.44;39.31;99521.50;5073131;28;20479;-47
2022/11/15 20:09:17;;;;;;;6.97;1.50;;;;;;;24.46;39.47;99511.03;5055238;28;20028;-46
2022/11/15 20:11:46;;;;;;;4.00;1.10;;;;;;;24.45;39.36;99507.53;5072376;28;20040;-47
2022/11/15 20:14:14;;;;;;;3.53;1.25;;;;;;;24.47;39.16;99503.13;5072210;28;20028;-48
2022/11/15 20:16:43;;;;;;;3.95;1.27;;;;;;;24.42;39.38;99503.19;5038468;28;20472;-49
2022/11/15 20:19:11;;;;;;;6.63;1.38;;;;;;;24.40;39.35;99496.25;5055090;28;20479;-46
2022/11/15 20:21:40;;;;;;;6.38;1.85;;;;;;;24.45;39.40;99504.91;5055195;28;20044;-50
2022/11/15 20:24:09;;;;;;;3.22;1.40;;;;;;;24.41;39.47;99498.84;5072568;28;20056;-47
2022/11/15 20:26:37;;;;;;;3.33;1.08;;;;;;;24.47;39.71;99503.13;5054737;28;20048;-47
2022/11/15 20:29:07;;;;;;;4.80;1.33;;;;;;;24.45;39.64;99497.03;5072497;28;20024;-48
2022/11/15 20:31:35;;;;;;;7.97;1.65;;;;;;;24.38;39.27;99488.38;5072703;28;20479;-49
2022/11/15 20:34:04;;;;;;;9.38;1.88;;;;;;;24.45;39.23;99496.19;5072288;28;20032;-46
2022/11/15 20:36:32;;;;;;;4.03;1.23;;;;;;;24.46;39.17;99500.53;5072509;28;20016;-48
2022/11/15 20:39:01;;;;;;;4.28;1.23;;;;;;;24.47;39.31;99510.16;5072042;28;20027;-46
2022/11/15 20:41:29;;;;;;;5.90;1.48;;;;;;;24.32;39.12;99471.88;5072661;28;20499;-47
2022/11/15 20:43:58;;;;;;;3.90;1.30;;;;;;;24.41;39.28;99490.97;5072773;28;20471;-48
2022/11/15 20:46:26;;;;;;;3.78;1.13;;;;;;;24.36;39.65;99498.00;5072503;28;20505;-46
2022/11/15 20:48:54;;;;;;;5.15;1.33;;;;;;;24.43;39.20;99497.06;5072479;28;20016;-48
2022/11/15 20:51:22;;;;;;;6.03;1.65;;;;;;;24.46;39.22;99495.31;5038148;28;20434;-48
2022/11/15 20:53:51;;;;;;;3.15;1.23;;;;;;;24.38;39.61;99500.63;5072379;28;20031;-50
2022/11/15 20:56:21;;;;;;;5.80;1.45;;;;;;;24.39;39.28;99497.13;5072169;28;20499;-45
2022/11/15 20:58:50;;;;;;;5.93;1.60;;;;;;;24.41;39.34;99497.94;5054535;28;20059;-47